Terminal Aerodrome Forecast
Issued by NWS

Home | Current Version | Previous Version | Text Only | Print | Product List | Glossary On
Versions: 1 2 3 4 5 6 7 8 9 10 11 12 13 14 15 16 17 18 19 20 21
000
FTUS41 KPBZ 231100
TAFLBE
TAF
KLBE 231129Z 2312/2412 20006KT P6SM OVC060
     FM231700 17006KT P6SM SCT050 BKN200
     FM240200 15010KT 6SM -RA BKN050
     FM240600 18012G22KT 5SM -RA OVC030=

USA.gov is the U.S. government's official web portal to all federal, state and local government web resources and services.